createdAt,value
2023-02-11T00:00:09.860Z,89927.00
2023-02-11T00:01:09.800Z,89927.00
2023-02-11T00:02:09.911Z,89927.00
2023-02-11T00:03:09.882Z,89927.00
2023-02-11T00:04:09.774Z,89927.00
2023-02-11T00:05:09.782Z,89927.00
2023-02-11T00:06:09.782Z,89929.00
2023-02-11T00:07:09.918Z,89925.00
2023-02-11T00:08:09.724Z,89925.00
2023-02-11T00:09:09.709Z,89921.00
2023-02-11T00:10:09.727Z,89921.00
2023-02-11T00:11:09.670Z,89921.00
2023-02-11T00:12:09.664Z,89921.00
2023-02-11T00:13:09.656Z,89921.00
2023-02-11T00:14:09.642Z,89921.00
2023-02-11T00:15:09.592Z,89921.00
2023-02-11T00:16:09.635Z,89921.00
2023-02-11T00:17:09.597Z,89923.00
2023-02-11T00:18:09.696Z,89923.00
2023-02-11T00:19:09.526Z,89925.00
2023-02-11T00:20:09.531Z,89923.00
2023-02-11T00:21:09.496Z,89927.00
2023-02-11T00:22:09.464Z,89927.00
2023-02-11T00:23:09.501Z,89923.00
2023-02-11T00:24:09.466Z,89927.00
2023-02-11T00:25:09.418Z,89927.00
2023-02-11T00:26:09.395Z,89927.00
2023-02-11T00:27:09.348Z,89927.00
2023-02-11T00:28:09.394Z,89929.00
2023-02-11T00:29:09.363Z,89925.00
2023-02-11T00:30:09.347Z,89927.00
2023-02-11T00:31:09.525Z,89925.00
2023-02-11T00:32:09.335Z,89929.00
2023-02-11T00:33:09.350Z,89925.00
2023-02-11T00:34:09.306Z,89925.00
2023-02-11T00:35:09.310Z,89923.00
2023-02-11T00:36:09.307Z,89921.00
2023-02-11T00:37:09.263Z,89919.00
2023-02-11T00:38:09.276Z,89919.00
2023-02-11T00:39:09.269Z,89921.00
2023-02-11T00:40:09.234Z,89921.00
2023-02-11T00:41:09.241Z,89921.00
2023-02-11T00:42:09.213Z,89919.00
2023-02-11T00:43:09.215Z,89919.00
2023-02-11T00:44:09.191Z,89919.00
2023-02-11T00:45:09.208Z,89919.00
2023-02-11T00:46:09.254Z,89923.00
2023-02-11T00:47:09.160Z,89925.00
2023-02-11T00:48:09.175Z,89921.00
2023-02-11T00:49:09.145Z,89923.00
2023-02-11T00:50:09.142Z,89921.00
2023-02-11T00:51:09.134Z,89923.00
2023-02-11T00:52:09.123Z,89925.00
2023-02-11T00:53:09.114Z,89925.00
2023-02-11T00:54:09.109Z,89923.00
2023-02-11T00:55:09.081Z,89921.00
2023-02-11T00:56:09.079Z,89921.00
2023-02-11T00:57:09.075Z,89923.00
2023-02-11T00:58:09.086Z,89921.00
2023-02-11T00:59:09.055Z,89921.00
2023-02-11T01:00:09.046Z,89919.00
2023-02-11T01:01:09.124Z,89923.00
2023-02-11T01:02:09.010Z,89921.00
2023-02-11T01:03:09.029Z,89923.00
2023-02-11T01:04:09.033Z,89925.00
2023-02-11T01:05:09.033Z,89923.00
2023-02-11T01:06:08.979Z,89923.00
2023-02-11T01:07:08.974Z,89921.00
2023-02-11T01:08:08.988Z,89921.00
2023-02-11T01:09:08.953Z,89921.00
2023-02-11T01:10:08.920Z,89917.00
2023-02-11T01:11:08.926Z,89919.00
2023-02-11T01:12:08.901Z,89919.00
2023-02-11T01:13:08.902Z,89917.00
2023-02-11T01:14:08.887Z,89919.00
2023-02-11T01:15:08.897Z,89919.00
2023-02-11T01:16:08.904Z,89914.00
2023-02-11T01:17:08.849Z,89912.00
2023-02-11T01:18:08.820Z,89908.00
2023-02-11T01:19:08.834Z,89908.00
2023-02-11T01:20:08.849Z,89910.00
2023-02-11T01:21:08.798Z,89910.00
2023-02-11T01:22:08.797Z,89910.00
2023-02-11T01:23:08.784Z,89902.00
2023-02-11T01:24:08.799Z,89902.00
2023-02-11T01:25:08.780Z,89902.00
2023-02-11T01:26:08.773Z,89900.00
2023-02-11T01:27:08.775Z,89898.00
2023-02-11T01:28:08.883Z,89898.00
2023-02-11T01:29:08.731Z,89896.00
2023-02-11T01:30:08.723Z,89896.00
2023-02-11T01:31:08.749Z,89896.00
2023-02-11T01:32:08.759Z,89896.00
2023-02-11T01:33:08.707Z,89896.00
2023-02-11T01:34:08.713Z,89898.00
2023-02-11T01:35:08.718Z,89900.00
2023-02-11T01:36:08.675Z,89898.00
2023-02-11T01:37:08.691Z,89896.00
2023-02-11T01:38:08.685Z,89890.00
2023-02-11T01:39:08.728Z,89890.00
2023-02-11T01:40:08.723Z,89892.00
2023-02-11T01:41:08.682Z,89892.00
2023-02-11T01:42:08.667Z,89892.00
2023-02-11T01:43:08.667Z,89890.00
2023-02-11T01:44:08.684Z,89890.00
2023-02-11T01:45:08.703Z,89886.00
2023-02-11T01:46:08.661Z,89886.00
2023-02-11T01:47:08.608Z,89882.00
2023-02-11T01:48:08.593Z,89880.00
2023-02-11T01:49:08.652Z,89882.00
2023-02-11T01:50:08.564Z,89880.00
2023-02-11T01:51:08.570Z,89882.00
2023-02-11T01:52:08.538Z,89880.00
2023-02-11T01:53:08.540Z,89880.00
2023-02-11T01:54:08.542Z,89882.00
2023-02-11T01:55:08.541Z,89880.00
2023-02-11T01:56:08.484Z,89880.00
2023-02-11T01:57:08.501Z,89880.00
2023-02-11T01:58:08.470Z,89882.00
2023-02-11T01:59:08.481Z,89880.00
2023-02-11T02:00:08.432Z,89878.00
2023-02-11T02:01:08.433Z,89876.00
2023-02-11T02:02:08.422Z,89872.00
2023-02-11T02:03:08.455Z,89870.00
2023-02-11T02:04:08.395Z,89870.00
2023-02-11T02:05:08.421Z,89870.00
2023-02-11T02:06:08.472Z,89872.00
2023-02-11T02:07:08.409Z,89874.00
2023-02-11T02:08:08.386Z,89872.00
2023-02-11T02:09:08.395Z,89870.00
2023-02-11T02:10:08.386Z,89869.00
2023-02-11T02:11:08.350Z,89869.00
2023-02-11T02:12:08.338Z,89865.00
2023-02-11T02:13:08.351Z,89863.00
2023-02-11T02:14:08.329Z,89861.00
2023-02-11T02:15:08.362Z,89857.00
2023-02-11T02:16:09.908Z,89855.00
2023-02-11T02:17:08.266Z,89851.00
2023-02-11T02:18:08.275Z,89851.00
2023-02-11T02:19:08.258Z,89851.00
2023-02-11T02:20:08.246Z,89851.00
2023-02-11T02:21:08.248Z,89849.00
2023-02-11T02:22:08.239Z,89845.00
2023-02-11T02:23:08.225Z,89841.00
2023-02-11T02:24:08.213Z,89841.00
2023-02-11T02:25:08.187Z,89841.00
2023-02-11T02:26:08.153Z,89843.00
2023-02-11T02:27:08.159Z,89839.00
2023-02-11T02:28:08.175Z,89841.00
2023-02-11T02:29:08.191Z,89841.00
2023-02-11T02:30:08.142Z,89841.00
2023-02-11T02:31:08.222Z,89841.00
2023-02-11T02:32:08.155Z,89841.00
2023-02-11T02:33:21.947Z,89839.00
2023-02-11T02:34:09.140Z,89839.00
2023-02-11T02:35:08.129Z,89841.00
2023-02-11T02:36:08.094Z,89839.00
2023-02-11T02:37:08.095Z,89837.00
2023-02-11T02:38:08.104Z,89837.00
2023-02-11T02:39:08.065Z,89839.00
2023-02-11T02:40:08.042Z,89837.00
2023-02-11T02:41:08.099Z,89835.00
2023-02-11T02:42:08.046Z,89837.00
2023-02-11T02:43:08.058Z,89837.00
2023-02-11T02:44:08.028Z,89833.00
2023-02-11T02:45:08.046Z,89833.00
2023-02-11T02:46:08.044Z,89831.00
2023-02-11T02:47:08.000Z,89831.00
2023-02-11T02:48:08.003Z,89827.00
2023-02-11T02:49:08.015Z,89827.00
2023-02-11T02:50:08.030Z,89827.00
2023-02-11T02:51:08.076Z,89829.00
2023-02-11T02:52:07.987Z,89833.00
2023-02-11T02:53:08.001Z,89835.00
2023-02-11T02:54:07.993Z,89831.00
2023-02-11T02:55:08.066Z,89829.00
2023-02-11T02:56:08.004Z,89833.00
2023-02-11T02:57:08.007Z,89833.00
2023-02-11T02:58:08.038Z,89831.00
2023-02-11T02:59:07.981Z,89833.00
2023-02-11T03:00:08.029Z,89835.00
2023-02-11T03:01:08.054Z,89833.00
2023-02-11T03:02:07.985Z,89831.00
2023-02-11T03:03:07.995Z,89833.00
2023-02-11T03:04:08.060Z,89835.00
2023-02-11T03:05:08.015Z,89835.00
2023-02-11T03:06:07.985Z,89833.00
2023-02-11T03:07:07.984Z,89835.00
2023-02-11T03:08:07.998Z,89833.00
2023-02-11T03:09:11.047Z,89831.00
2023-02-11T03:10:07.998Z,89833.00
2023-02-11T03:11:07.983Z,89831.00
2023-02-11T03:12:07.953Z,89833.00
2023-02-11T03:13:07.955Z,89831.00
2023-02-11T03:14:07.968Z,89833.00
2023-02-11T03:15:07.937Z,89831.00
2023-02-11T03:16:07.966Z,89831.00
2023-02-11T03:17:07.958Z,89829.00
2023-02-11T03:18:07.936Z,89825.00
2023-02-11T03:19:07.960Z,89825.00
2023-02-11T03:20:07.953Z,89823.00
2023-02-11T03:21:07.963Z,89822.00
2023-02-11T03:22:07.968Z,89818.00
2023-02-11T03:23:07.987Z,89825.00
2023-02-11T03:24:07.953Z,89818.00
2023-02-11T03:25:07.941Z,89823.00
2023-02-11T03:26:07.986Z,89820.00
2023-02-11T03:27:08.002Z,89823.00
2023-02-11T03:28:07.978Z,89822.00
2023-02-11T03:29:07.951Z,89823.00
2023-02-11T03:30:07.978Z,89822.00
2023-02-11T03:31:08.874Z,89822.00
2023-02-11T03:32:08.011Z,89822.00
2023-02-11T03:33:07.943Z,89820.00
2023-02-11T03:34:07.943Z,89823.00
2023-02-11T03:35:07.953Z,89818.00
2023-02-11T03:36:07.965Z,89820.00
2023-02-11T03:37:07.957Z,89820.00
2023-02-11T03:38:07.964Z,89822.00
2023-02-11T03:39:07.935Z,89818.00
2023-02-11T03:40:07.932Z,89818.00
2023-02-11T03:41:07.990Z,89820.00
2023-02-11T03:42:07.939Z,89822.00
2023-02-11T03:43:07.947Z,89820.00
2023-02-11T03:44:07.939Z,89818.00
2023-02-11T03:45:07.942Z,89816.00
2023-02-11T03:46:07.972Z,89814.00
2023-02-11T03:47:07.934Z,89820.00
2023-02-11T03:48:07.951Z,89818.00
2023-02-11T03:49:07.935Z,89818.00
2023-02-11T03:50:07.947Z,89818.00
2023-02-11T03:51:07.956Z,89818.00
2023-02-11T03:52:07.948Z,89816.00
2023-02-11T03:53:07.931Z,89816.00
2023-02-11T03:54:07.959Z,89814.00
2023-02-11T03:55:07.929Z,89814.00
2023-02-11T03:56:07.942Z,89814.00
2023-02-11T03:57:07.914Z,89816.00
2023-02-11T03:58:07.921Z,89814.00
2023-02-11T03:59:07.900Z,89818.00
2023-02-11T04:00:07.902Z,89814.00
2023-02-11T04:01:07.946Z,89814.00
2023-02-11T04:02:08.776Z,89812.00
2023-02-11T04:03:07.888Z,89810.00
2023-02-11T04:04:07.871Z,89812.00
2023-02-11T04:05:07.900Z,89810.00
2023-02-11T04:06:07.876Z,89810.00
2023-02-11T04:07:07.843Z,89812.00
2023-02-11T04:08:07.857Z,89810.00
2023-02-11T04:09:07.874Z,89812.00
2023-02-11T04:10:07.855Z,89812.00
2023-02-11T04:11:07.862Z,89810.00
2023-02-11T04:12:07.878Z,89812.00
2023-02-11T04:13:07.845Z,89814.00
2023-02-11T04:14:07.825Z,89814.00
2023-02-11T04:15:07.831Z,89810.00
2023-02-11T04:16:07.908Z,89810.00
2023-02-11T04:17:07.843Z,89808.00
2023-02-11T04:18:07.854Z,89806.00
2023-02-11T04:19:07.859Z,89806.00
2023-02-11T04:20:07.836Z,89804.00
2023-02-11T04:21:07.856Z,89806.00
2023-02-11T04:22:07.897Z,89806.00
2023-02-11T04:23:07.837Z,89806.00
2023-02-11T04:24:07.818Z,89804.00
2023-02-11T04:25:07.809Z,89802.00
2023-02-11T04:26:07.860Z,89808.00
2023-02-11T04:27:07.810Z,89806.00
2023-02-11T04:28:07.845Z,89808.00
2023-02-11T04:29:07.808Z,89808.00
2023-02-11T04:30:07.836Z,89808.00
2023-02-11T04:31:07.895Z,89806.00
2023-02-11T04:32:07.927Z,89804.00
2023-02-11T04:33:07.790Z,89804.00
2023-02-11T04:34:07.781Z,89808.00
2023-02-11T04:35:07.768Z,89810.00
2023-02-11T04:36:07.788Z,89806.00
2023-02-11T04:37:07.780Z,89808.00
2023-02-11T04:38:07.747Z,89806.00
2023-02-11T04:39:07.745Z,89808.00
2023-02-11T04:40:07.740Z,89808.00
2023-02-11T04:41:07.771Z,89804.00
2023-02-11T04:42:07.727Z,89810.00
2023-02-11T04:43:07.711Z,89808.00
2023-02-11T04:44:07.722Z,89812.00
2023-02-11T04:45:07.728Z,89810.00
2023-02-11T04:46:07.697Z,89808.00
2023-02-11T04:47:07.698Z,89808.00
2023-02-11T04:48:07.683Z,89808.00
2023-02-11T04:49:07.652Z,89808.00
2023-02-11T04:50:07.676Z,89804.00
2023-02-11T04:51:07.682Z,89806.00
2023-02-11T04:52:07.680Z,89806.00
2023-02-11T04:53:07.673Z,89806.00
2023-02-11T04:54:07.643Z,89806.00
2023-02-11T04:55:07.649Z,89806.00
2023-02-11T04:56:07.658Z,89810.00
2023-02-11T04:57:07.657Z,89810.00
2023-02-11T04:58:07.663Z,89808.00
2023-02-11T04:59:07.665Z,89806.00
2023-02-11T05:00:07.657Z,89804.00
2023-02-11T05:01:07.678Z,89806.00
2023-02-11T05:02:07.694Z,89804.00
2023-02-11T05:03:07.656Z,89802.00
2023-02-11T05:04:07.704Z,89800.00
2023-02-11T05:05:07.640Z,89798.00
2023-02-11T05:06:07.646Z,89796.00
2023-02-11T05:07:07.665Z,89798.00
2023-02-11T05:08:07.621Z,89796.00
2023-02-11T05:09:07.635Z,89798.00
2023-02-11T05:10:07.636Z,89802.00
2023-02-11T05:11:07.610Z,89798.00
2023-02-11T05:12:07.676Z,89800.00
2023-02-11T05:13:07.633Z,89800.00
2023-02-11T05:14:07.617Z,89802.00
2023-02-11T05:15:07.611Z,89804.00
2023-02-11T05:16:07.609Z,89804.00
2023-02-11T05:17:07.628Z,89806.00
2023-02-11T05:18:07.633Z,89808.00
2023-02-11T05:19:07.637Z,89806.00
2023-02-11T05:20:07.630Z,89808.00
2023-02-11T05:21:07.636Z,89808.00
2023-02-11T05:22:07.651Z,89806.00
2023-02-11T05:23:07.642Z,89804.00
2023-02-11T05:24:07.688Z,89804.00
2023-02-11T05:25:07.633Z,89804.00
2023-02-11T05:26:07.636Z,89806.00
2023-02-11T05:27:07.648Z,89804.00
2023-02-11T05:28:07.717Z,89806.00
2023-02-11T05:29:07.649Z,89806.00
2023-02-11T05:30:07.621Z,89808.00
2023-02-11T05:31:07.650Z,89808.00
2023-02-11T05:32:07.654Z,89814.00
2023-02-11T05:33:07.626Z,89814.00
2023-02-11T05:34:07.632Z,89816.00
2023-02-11T05:35:07.595Z,89814.00
2023-02-11T05:36:07.603Z,89816.00
2023-02-11T05:37:07.620Z,89812.00
2023-02-11T05:38:07.609Z,89810.00
2023-02-11T05:39:07.575Z,89812.00
2023-02-11T05:40:07.998Z,89808.00
2023-02-11T05:41:07.704Z,89808.00
2023-02-11T05:42:07.579Z,89808.00
2023-02-11T05:43:07.622Z,89810.00
2023-02-11T05:44:07.578Z,89806.00
2023-02-11T05:45:07.566Z,89806.00
2023-02-11T05:46:07.608Z,89810.00
2023-02-11T05:47:07.584Z,89810.00
2023-02-11T05:48:07.569Z,89810.00
2023-02-11T05:49:07.530Z,89812.00
2023-02-11T05:50:07.526Z,89810.00
2023-02-11T05:51:07.530Z,89808.00
2023-02-11T05:52:07.531Z,89810.00
2023-02-11T05:53:07.536Z,89808.00
2023-02-11T05:54:07.557Z,89810.00
2023-02-11T05:55:07.553Z,89812.00
2023-02-11T05:56:07.527Z,89812.00
2023-02-11T05:57:07.556Z,89814.00
2023-02-11T05:58:07.550Z,89812.00
2023-02-11T05:59:07.518Z,89812.00
2023-02-11T06:00:07.513Z,89816.00
2023-02-11T06:01:07.520Z,89816.00
2023-02-11T06:02:07.501Z,89816.00
2023-02-11T06:03:07.509Z,89818.00
2023-02-11T06:04:07.524Z,89822.00
2023-02-11T06:05:07.507Z,89820.00
2023-02-11T06:06:07.478Z,89822.00
2023-02-11T06:07:07.484Z,89822.00
2023-02-11T06:08:07.494Z,89822.00
2023-02-11T06:09:07.467Z,89822.00
2023-02-11T06:10:07.452Z,89820.00
2023-02-11T06:11:07.466Z,89820.00
2023-02-11T06:12:07.424Z,89816.00
2023-02-11T06:13:07.430Z,89816.00
2023-02-11T06:14:07.420Z,89818.00
2023-02-11T06:15:07.421Z,89814.00
2023-02-11T06:16:07.424Z,89816.00
2023-02-11T06:17:07.433Z,89812.00
2023-02-11T06:18:07.442Z,89814.00
2023-02-11T06:19:07.384Z,89808.00
2023-02-11T06:20:07.405Z,89808.00
2023-02-11T06:21:07.394Z,89808.00
2023-02-11T06:22:07.415Z,89806.00
2023-02-11T06:23:07.378Z,89808.00
2023-02-11T06:24:07.385Z,89808.00
2023-02-11T06:25:07.353Z,89808.00
2023-02-11T06:26:07.358Z,89808.00
2023-02-11T06:27:07.339Z,89812.00
2023-02-11T06:28:07.410Z,89814.00
2023-02-11T06:29:07.329Z,89816.00
2023-02-11T06:30:07.339Z,89818.00
2023-02-11T06:31:07.448Z,89822.00
2023-02-11T06:32:10.099Z,89822.00
2023-02-11T06:33:08.328Z,89825.00
2023-02-11T06:34:07.303Z,89825.00
2023-02-11T06:35:08.898Z,89827.00
2023-02-11T06:36:07.264Z,89827.00
2023-02-11T06:37:07.270Z,89829.00
2023-02-11T06:38:07.283Z,89825.00
2023-02-11T06:39:07.299Z,89823.00
2023-02-11T06:40:07.296Z,89825.00
2023-02-11T06:41:08.216Z,89827.00
2023-02-11T06:42:08.077Z,89827.00
2023-02-11T06:43:07.210Z,89827.00
2023-02-11T06:44:07.234Z,89825.00
2023-02-11T06:45:07.223Z,89827.00
2023-02-11T06:46:07.216Z,89827.00
2023-02-11T06:47:07.205Z,89829.00
2023-02-11T06:48:07.176Z,89831.00
2023-02-11T06:49:07.181Z,89831.00
2023-02-11T06:50:07.181Z,89831.00
2023-02-11T06:51:07.158Z,89833.00
2023-02-11T06:52:07.162Z,89833.00
2023-02-11T06:53:07.158Z,89835.00
2023-02-11T06:54:07.236Z,89837.00
2023-02-11T06:55:07.164Z,89837.00
2023-02-11T06:56:07.138Z,89837.00
2023-02-11T06:57:07.139Z,89835.00
2023-02-11T06:58:07.157Z,89835.00
2023-02-11T06:59:07.126Z,89841.00
2023-02-11T07:00:07.137Z,89841.00
2023-02-11T07:01:07.162Z,89837.00
2023-02-11T07:02:07.216Z,89835.00
2023-02-11T07:03:07.162Z,89835.00
2023-02-11T07:04:07.133Z,89833.00
2023-02-11T07:05:07.122Z,89833.00
2023-02-11T07:06:07.133Z,89831.00
2023-02-11T07:07:07.128Z,89833.00
2023-02-11T07:08:07.137Z,89829.00
2023-02-11T07:09:07.150Z,89829.00
2023-02-11T07:10:07.131Z,89827.00
2023-02-11T07:11:07.111Z,89827.00
2023-02-11T07:12:07.103Z,89827.00
2023-02-11T07:13:07.125Z,89825.00
2023-02-11T07:14:07.130Z,89827.00
2023-02-11T07:15:07.124Z,89829.00
2023-02-11T07:16:07.151Z,89827.00
2023-02-11T07:17:07.098Z,89829.00
2023-02-11T07:18:07.059Z,89829.00
2023-02-11T07:19:07.095Z,89831.00
2023-02-11T07:20:07.124Z,89827.00
2023-02-11T07:21:07.065Z,89831.00
2023-02-11T07:22:07.053Z,89833.00
2023-02-11T07:23:07.059Z,89833.00
2023-02-11T07:24:10.336Z,89835.00
2023-02-11T07:25:07.046Z,89835.00
2023-02-11T07:26:07.034Z,89833.00
2023-02-11T07:27:07.032Z,89835.00
2023-02-11T07:28:07.098Z,89835.00
2023-02-11T07:29:07.075Z,89837.00
2023-02-11T07:30:07.449Z,89837.00
2023-02-11T07:31:07.139Z,89835.00
2023-02-11T07:32:07.118Z,89837.00
2023-02-11T07:33:07.038Z,89837.00
2023-02-11T07:34:07.073Z,89837.00
2023-02-11T07:35:07.237Z,89835.00
2023-02-11T07:36:07.045Z,89837.00
2023-02-11T07:37:07.058Z,89835.00
2023-02-11T07:38:07.067Z,89835.00
2023-02-11T07:39:07.102Z,89835.00
2023-02-11T07:40:07.084Z,89835.00
2023-02-11T07:41:07.046Z,89835.00
2023-02-11T07:42:07.045Z,89835.00
2023-02-11T07:43:07.036Z,89837.00
2023-02-11T07:44:07.036Z,89835.00
2023-02-11T07:45:07.050Z,89835.00
2023-02-11T07:46:07.018Z,89837.00
2023-02-11T07:47:07.100Z,89837.00
2023-02-11T07:48:07.036Z,89839.00
2023-02-11T07:49:07.029Z,89839.00
2023-02-11T07:50:07.051Z,89837.00
2023-02-11T07:51:07.028Z,89837.00
2023-02-11T07:52:07.030Z,89839.00
2023-02-11T07:53:07.054Z,89833.00
2023-02-11T07:54:07.041Z,89837.00
2023-02-11T07:55:07.062Z,89841.00
2023-02-11T07:56:07.034Z,89839.00
2023-02-11T07:57:07.014Z,89843.00
2023-02-11T07:58:07.052Z,89843.00
2023-02-11T07:59:07.033Z,89843.00
2023-02-11T08:00:07.061Z,89843.00
2023-02-11T08:01:07.076Z,89841.00
2023-02-11T08:02:07.061Z,89841.00
2023-02-11T08:03:07.028Z,89839.00
2023-02-11T08:04:07.007Z,89837.00
2023-02-11T08:05:07.027Z,89839.00
2023-02-11T08:06:07.000Z,89839.00
2023-02-11T08:07:07.015Z,89843.00
2023-02-11T08:08:06.982Z,89841.00
2023-02-11T08:09:07.009Z,89841.00
2023-02-11T08:10:07.024Z,89839.00
2023-02-11T08:11:07.002Z,89841.00
2023-02-11T08:12:06.976Z,89839.00
2023-02-11T08:13:06.974Z,89837.00
2023-02-11T08:14:06.984Z,89835.00
2023-02-11T08:15:07.001Z,89833.00
2023-02-11T08:16:06.990Z,89829.00
2023-02-11T08:17:06.937Z,89825.00
2023-02-11T08:18:06.967Z,89829.00
2023-02-11T08:19:06.950Z,89829.00
2023-02-11T08:20:06.950Z,89831.00
2023-02-11T08:21:06.937Z,89827.00
2023-02-11T08:22:06.925Z,89825.00
2023-02-11T08:23:06.922Z,89823.00
2023-02-11T08:24:06.917Z,89822.00
2023-02-11T08:25:06.944Z,89822.00
2023-02-11T08:26:06.907Z,89822.00
2023-02-11T08:27:06.899Z,89823.00
2023-02-11T08:28:06.951Z,89822.00
2023-02-11T08:29:06.912Z,89820.00
2023-02-11T08:30:06.948Z,89820.00
2023-02-11T08:31:06.960Z,89822.00
2023-02-11T08:32:06.919Z,89822.00
2023-02-11T08:33:06.910Z,89822.00
2023-02-11T08:34:06.887Z,89822.00
2023-02-11T08:35:06.906Z,89820.00
2023-02-11T08:36:06.885Z,89820.00
2023-02-11T08:37:06.883Z,89814.00
2023-02-11T08:38:06.885Z,89818.00
2023-02-11T08:39:20.278Z,89816.00
2023-02-11T08:40:07.900Z,89816.00
2023-02-11T08:41:06.886Z,89812.00
2023-02-11T08:42:06.893Z,89810.00
2023-02-11T08:43:08.178Z,89812.00
2023-02-11T08:44:06.957Z,89812.00
2023-02-11T08:45:06.933Z,89810.00
2023-02-11T08:46:06.900Z,89812.00
2023-02-11T08:47:06.895Z,89812.00
2023-02-11T08:48:06.901Z,89812.00
2023-02-11T08:49:06.888Z,89814.00
2023-02-11T08:50:06.950Z,89814.00
2023-02-11T08:51:06.928Z,89816.00
2023-02-11T08:52:06.912Z,89816.00
2023-02-11T08:53:06.903Z,89814.00
2023-02-11T08:54:06.899Z,89814.00
2023-02-11T08:55:06.925Z,89812.00
2023-02-11T08:56:06.936Z,89808.00
2023-02-11T08:57:06.912Z,89810.00
2023-02-11T08:58:06.904Z,89812.00
2023-02-11T08:59:06.908Z,89812.00
2023-02-11T09:00:06.936Z,89812.00
2023-02-11T09:01:06.972Z,89814.00
2023-02-11T09:02:06.976Z,89814.00
2023-02-11T09:03:06.947Z,89812.00
2023-02-11T09:04:06.954Z,89810.00
2023-02-11T09:05:06.955Z,89808.00
2023-02-11T09:06:06.975Z,89808.00
2023-02-11T09:07:06.946Z,89810.00
2023-02-11T09:08:06.958Z,89812.00
2023-02-11T09:09:06.959Z,89810.00
2023-02-11T09:10:06.981Z,89812.00
2023-02-11T09:11:07.040Z,89810.00
2023-02-11T09:12:06.974Z,89812.00
2023-02-11T09:13:07.009Z,89810.00
2023-02-11T09:14:06.986Z,89816.00
2023-02-11T09:15:06.957Z,89814.00
2023-02-11T09:16:06.968Z,89814.00
2023-02-11T09:17:07.086Z,89814.00
2023-02-11T09:18:06.992Z,89814.00
2023-02-11T09:19:06.982Z,89818.00
2023-02-11T09:20:09.134Z,89820.00
2023-02-11T09:21:07.000Z,89818.00
2023-02-11T09:22:06.990Z,89818.00
2023-02-11T09:23:06.990Z,89816.00
2023-02-11T09:24:06.956Z,89818.00
2023-02-11T09:25:07.027Z,89814.00
2023-02-11T09:26:09.138Z,89812.00
2023-02-11T09:27:06.943Z,89806.00
2023-02-11T09:28:07.013Z,89808.00
2023-02-11T09:29:06.954Z,89804.00
2023-02-11T09:30:06.989Z,89804.00
2023-02-11T09:31:07.058Z,89806.00
2023-02-11T09:32:09.749Z,89806.00
2023-02-11T09:33:06.928Z,89804.00
2023-02-11T09:34:06.943Z,89804.00
2023-02-11T09:35:06.940Z,89806.00
2023-02-11T09:36:06.978Z,89806.00
2023-02-11T09:37:06.940Z,89806.00
2023-02-11T09:38:06.960Z,89810.00
2023-02-11T09:39:06.956Z,89810.00
2023-02-11T09:40:07.026Z,89808.00
2023-02-11T09:41:06.961Z,89810.00
2023-02-11T09:42:06.940Z,89806.00
2023-02-11T09:43:06.910Z,89808.00
2023-02-11T09:44:06.919Z,89806.00
2023-02-11T09:45:06.904Z,89814.00
2023-02-11T09:46:07.049Z,89814.00
2023-02-11T09:47:06.945Z,89814.00
2023-02-11T09:48:06.908Z,89814.00
2023-02-11T09:49:06.876Z,89814.00
2023-02-11T09:50:06.891Z,89816.00
2023-02-11T09:51:06.877Z,89814.00
2023-02-11T09:52:06.916Z,89814.00
2023-02-11T09:53:06.879Z,89810.00
2023-02-11T09:54:06.860Z,89812.00
2023-02-11T09:55:06.880Z,89812.00
2023-02-11T09:56:06.866Z,89814.00
2023-02-11T09:57:08.992Z,89814.00
2023-02-11T09:58:07.855Z,89810.00
2023-02-11T09:59:06.891Z,89810.00
2023-02-11T10:00:06.893Z,89808.00
2023-02-11T10:01:06.894Z,89806.00
2023-02-11T10:02:06.869Z,89806.00
2023-02-11T10:03:06.876Z,89804.00
2023-02-11T10:04:06.899Z,89802.00
2023-02-11T10:05:06.874Z,89804.00
2023-02-11T10:06:06.860Z,89806.00
2023-02-11T10:07:06.863Z,89806.00
2023-02-11T10:08:06.882Z,89802.00
2023-02-11T10:09:06.849Z,89800.00
2023-02-11T10:10:06.866Z,89796.00
2023-02-11T10:11:07.401Z,89794.00
2023-02-11T10:12:06.883Z,89794.00
2023-02-11T10:13:06.876Z,89794.00
2023-02-11T10:14:06.860Z,89794.00
2023-02-11T10:15:06.891Z,89796.00
2023-02-11T10:16:06.878Z,89796.00
2023-02-11T10:17:06.866Z,89794.00
2023-02-11T10:18:06.908Z,89792.00
2023-02-11T10:19:06.843Z,89792.00
2023-02-11T10:20:06.838Z,89794.00
2023-02-11T10:21:06.887Z,89794.00
2023-02-11T10:22:06.874Z,89792.00
2023-02-11T10:23:06.845Z,89792.00
2023-02-11T10:24:06.834Z,89794.00
2023-02-11T10:25:06.837Z,89792.00
2023-02-11T10:26:06.842Z,89792.00
2023-02-11T10:27:06.864Z,89792.00
2023-02-11T10:28:06.873Z,89790.00
2023-02-11T10:29:06.831Z,89788.00
2023-02-11T10:30:06.827Z,89786.00
2023-02-11T10:31:06.995Z,89788.00
2023-02-11T10:32:06.876Z,89788.00
2023-02-11T10:33:06.811Z,89786.00
2023-02-11T10:34:06.821Z,89782.00
2023-02-11T10:35:06.822Z,89776.00
2023-02-11T10:36:06.830Z,89778.00
2023-02-11T10:37:06.840Z,89776.00
2023-02-11T10:38:06.830Z,89767.00
2023-02-11T10:39:06.818Z,89767.00
2023-02-11T10:40:06.910Z,89763.00
2023-02-11T10:41:06.812Z,89763.00
2023-02-11T10:42:06.860Z,89763.00
2023-02-11T10:43:06.872Z,89763.00
2023-02-11T10:44:06.819Z,89763.00
2023-02-11T10:45:06.837Z,89761.00
2023-02-11T10:46:06.928Z,89757.00
2023-02-11T10:47:06.841Z,89755.00
2023-02-11T10:48:06.845Z,89752.00
2023-02-11T10:49:06.809Z,89752.00
2023-02-11T10:50:06.819Z,89752.00
2023-02-11T10:51:06.869Z,89750.00
2023-02-11T11:02:06.801Z,89738.00
2023-02-11T11:19:06.706Z,89724.00
2023-02-11T11:32:06.676Z,89714.00
2023-02-11T11:33:06.624Z,89714.00
2023-02-11T11:34:06.587Z,89714.00
2023-02-11T11:35:06.588Z,89712.00
2023-02-11T11:36:06.569Z,89710.00
2023-02-11T11:37:06.560Z,89708.00
2023-02-11T11:38:06.574Z,89702.00
2023-02-11T11:39:06.554Z,89702.00
2023-02-11T11:40:06.560Z,89699.00
2023-02-11T11:41:06.529Z,89699.00
2023-02-11T11:42:06.517Z,89697.00
2023-02-11T11:43:06.531Z,89697.00
2023-02-11T11:44:06.494Z,89697.00
2023-02-11T11:45:06.479Z,89697.00
2023-02-11T11:46:06.458Z,89697.00
2023-02-11T11:47:06.462Z,89695.00
2023-02-11T11:48:06.465Z,89693.00
2023-02-11T11:49:06.428Z,89693.00
2023-02-11T11:50:06.420Z,89693.00
2023-02-11T11:51:06.436Z,89695.00
2023-02-11T11:52:06.416Z,89697.00
2023-02-11T11:53:06.425Z,89697.00
2023-02-11T11:54:06.397Z,89697.00
2023-02-11T11:55:06.903Z,89697.00
2023-02-11T11:56:06.360Z,89695.00
2023-02-11T11:57:06.352Z,89697.00
2023-02-11T11:58:06.321Z,89695.00
2023-02-11T11:59:06.318Z,89695.00
2023-02-11T12:00:06.333Z,89693.00
2023-02-11T12:01:06.295Z,89691.00
2023-02-11T12:02:08.429Z,89691.00
2023-02-11T12:03:06.406Z,89691.00
2023-02-11T12:04:06.317Z,89693.00
2023-02-11T12:05:06.270Z,89689.00
2023-02-11T12:06:06.238Z,89687.00
2023-02-11T12:07:06.214Z,89687.00
2023-02-11T12:08:06.372Z,89687.00
2023-02-11T12:09:06.194Z,89687.00
2023-02-11T12:10:06.207Z,89689.00
2023-02-11T12:11:06.230Z,89687.00
2023-02-11T12:12:06.324Z,89683.00
2023-02-11T12:13:06.357Z,89683.00
2023-02-11T12:14:06.377Z,89681.00
2023-02-11T12:15:06.419Z,89681.00
2023-02-11T12:16:06.495Z,89681.00
2023-02-11T12:18:06.523Z,89677.00
2023-02-11T12:19:06.513Z,89679.00
2023-02-11T12:20:06.507Z,89677.00
2023-02-11T12:21:06.502Z,89677.00
2023-02-11T12:22:06.479Z,89677.00
2023-02-11T12:23:06.487Z,89679.00